Airfield :
LOGIN :

Register | Disclaimer

   EN    FR    IT 

 










Legend :    VFR   Marginal VFR   IFR   Intensive IFR   Very Intensive IFR
Visi :
Ceiling :
>= 8 km
>= 3000ft
5 to 8 km
1000 to 3000 ft
1500m to 5 km
500 to 1000 ft
800 to 1500m
200 to 500 ft
< 800m
< 200 ft
Symbols :   Thunderstorms  Fog  Heavy snow  Heavy precipitations  Wind > 20 kt
SIGMETs :     Misc.  Thunderstorms  Icing  Turbulence  Mountain Waves  Volcanic Ashes






- Airport Elevation : 13 ft
- IATA code : OST


EBOS - Oostend bruges Int.

CURRENT METAR :
  • 240050Z 20009KT 1800 BR OVC002 06/05 Q1025 TEMPO 1200 BR

EXPIRED METARs :
  • 240020Z 19008KT 0800 R08/1900N R26/P2000N FG OVC002 06/06 Q1026 TEMPO 0900 FG
  • 232350Z 18008KT 0700 R08/1500U R26/1900U FG OVC002 06/06 Q1026 TEMPO 0900 FG
  • 232320Z 20009KT 0600 R08/0800U R26/1100U FG OVC002 06/06 Q1026 TEMPO 0500 FG
  • 232250Z 20008KT 0450 R08/0400N R26/0500N FG OVC002 06/06 Q1026 NOSIG

TAF TAF EBOS
Valid from the 24 at 00:00 until the 25 at 06:00 UTC


232300Z 2400/2506 18009KT 3000 BR BKN008
TEMPO 2400/2408 0500 FG BKN002
BECMG 2408/2410 9999 NSW BKN020
PROB30
TEMPO 2500/2506 0800 FG



MET'MAP, your aeronautical weather chart ! - Copyright ORBIFLY December 2007 - Disclaimer

ORBIFLY MET'MAP TEAM :

Programming & Development : Alexandra Zaïnal
Concept & original design : Baudouin d'Aumeries
Assistance for programming : Marc-Olivier Méhu
Technical & hardware support : Manuel Goepfert

Contact : metmap@orbifly.com




SOURCES & CREDITS :

   NOAA